Time;durP1;ratioP1;P1;durP2;ratioP2;P2;SDS_P1;SDS_P2;PMS_P1;PMS_P2;Temp;Humidity;BMP_temperature;BMP_pressure;BME280_temperature;BME280_humidity;BME280_pressure;Samples;Min_cycle;Max_cycle;Signal;HPM_P1;HPM_P2
2022/05/19 00:01:17;;;;;;;22.33;16.05;;;18.70;99.90;;;;;;5119589;27;20058;-64
2022/05/19 00:03:43;;;;;;;22.98;16.48;;;18.70;99.90;;;;;;5130886;27;20039;-63
2022/05/19 00:06:10;;;;;;;22.08;15.18;;;18.70;99.90;;;;;;5129040;27;20034;-63
2022/05/19 00:08:36;;;;;;;25.77;16.67;;;18.60;99.90;;;;;;5114817;27;20057;-64
2022/05/19 00:11:06;;;;;;;22.73;15.82;;;18.50;99.90;;;;;;5125863;27;20042;-63
2022/05/19 00:13:33;;;;;;;20.02;16.60;;;18.50;99.90;;;;;;5127652;27;20071;-64
2022/05/19 00:15:59;;;;;;;23.23;15.73;;;18.40;99.90;;;;;;5118374;27;20104;-64
2022/05/19 00:18:25;;;;;;;20.60;15.85;;;18.30;99.90;;;;;;5123820;27;20102;-63
2022/05/19 00:20:51;;;;;;;20.60;14.88;;;18.40;99.90;;;;;;5123442;27;20448;-63
2022/05/19 00:23:17;;;;;;;19.77;15.07;;;18.30;99.90;;;;;;5126865;27;20133;-63
2022/05/19 00:25:43;;;;;;;22.17;15.95;;;18.20;99.90;;;;;;5129403;27;20101;-63
2022/05/19 00:28:09;;;;;;;21.77;15.35;;;18.20;99.90;;;;;;5115516;27;20359;-63
2022/05/19 00:30:36;;;;;;;26.48;16.25;;;18.10;99.90;;;;;;5123642;27;20055;-63
2022/05/19 00:33:02;;;;;;;20.55;15.95;;;18.10;99.90;;;;;;5128478;27;20110;-63
2022/05/19 00:35:28;;;;;;;24.35;16.17;;;18.10;99.90;;;;;;5118210;27;20168;-64
2022/05/19 00:37:54;;;;;;;20.77;16.58;;;18.10;99.90;;;;;;5117687;27;20035;-63
2022/05/19 00:40:22;;;;;;;22.00;16.15;;;18.10;99.90;;;;;;5123476;27;20056;-64
2022/05/19 00:42:48;;;;;;;23.05;16.45;;;18.10;99.90;;;;;;5120061;27;20383;-64
2022/05/19 00:45:21;;;;;;;24.20;17.25;;;18.30;99.90;;;;;;5127647;27;20035;-63
2022/05/19 00:48:05;;;;;;;26.27;17.05;;;18.30;99.90;;;;;;5119219;27;20043;-64
2022/05/19 00:50:50;;;;;;;21.20;17.13;;;18.30;99.90;;;;;;5115309;27;20552;-63
2022/05/19 00:53:38;;;;;;;23.00;17.35;;;18.40;99.90;;;;;;5117753;27;20057;-64
2022/05/19 00:56:27;;;;;;;27.80;17.67;;;18.30;99.90;;;;;;5124968;27;20054;-63
2022/05/19 00:59:00;;;;;;;23.25;17.65;;;18.20;99.90;;;;;;5121229;27;20027;-63
2022/05/19 01:01:26;;;;;;;21.83;16.98;;;18.10;99.90;;;;;;5115778;27;20037;-63
2022/05/19 01:04:01;;;;;;;24.13;17.50;;;18.20;99.90;;;;;;5122947;27;20110;-65
2022/05/19 01:06:29;;;;;;;23.38;18.20;;;18.10;99.90;;;;;;5109110;27;20053;-63
2022/05/19 01:09:15;;;;;;;20.95;17.50;;;18.10;99.90;;;;;;5117126;27;20432;-64
2022/05/19 01:11:43;;;;;;;22.52;17.65;;;18.10;99.90;;;;;;5123002;27;20111;-63
2022/05/19 01:14:09;;;;;;;24.10;17.70;;;17.90;99.90;;;;;;5114452;27;20028;-63
2022/05/19 01:16:37;;;;;;;24.67;17.75;;;17.80;99.90;;;;;;5126621;27;20476;-64
2022/05/19 01:19:10;;;;;;;24.08;18.25;;;17.80;99.90;;;;;;5125494;27;20040;-63
2022/05/19 01:21:36;;;;;;;23.52;17.77;;;17.70;99.90;;;;;;5125737;27;20034;-64
2022/05/19 01:24:16;;;;;;;26.85;19.52;;;17.80;99.90;;;;;;5122896;27;20111;-63
2022/05/19 01:26:53;;;;;;;26.67;20.40;;;17.70;99.90;;;;;;5109368;27;20046;-63
2022/05/19 01:29:23;;;;;;;26.55;19.55;;;17.60;99.90;;;;;;5114437;27;20039;-63
2022/05/19 01:31:55;;;;;;;29.27;19.42;;;17.50;99.90;;;;;;5119810;27;20046;-63
2022/05/19 01:34:25;;;;;;;25.50;19.17;;;17.60;99.90;;;;;;5127230;27;20118;-63
2022/05/19 01:36:51;;;;;;;25.73;20.42;;;17.60;99.90;;;;;;5126456;28;20074;-63
2022/05/19 01:39:20;;;;;;;24.27;18.73;;;17.60;99.90;;;;;;5129282;28;20027;-64
2022/05/19 01:42:07;;;;;;;24.52;19.38;;;17.60;99.90;;;;;;5119592;28;20387;-63
2022/05/19 01:44:51;;;;;;;23.33;18.92;;;17.60;99.90;;;;;;5117181;28;20378;-64
2022/05/19 01:47:17;;;;;;;29.38;19.98;;;17.60;99.90;;;;;;5119557;28;20053;-64
2022/05/19 01:49:48;;;;;;;24.25;18.88;;;17.50;99.90;;;;;;5127883;28;20047;-64
2022/05/19 01:52:26;;;;;;;23.05;19.10;;;17.50;99.90;;;;;;5120140;28;20044;-64
2022/05/19 01:55:11;;;;;;;24.13;19.00;;;17.40;99.90;;;;;;5115077;28;20391;-64
2022/05/19 01:57:49;;;;;;;29.75;20.15;;;17.40;99.90;;;;;;5125319;28;20049;-63
2022/05/19 02:00:21;;;;;;;25.65;19.73;;;17.40;99.90;;;;;;5118782;28;20172;-65
2022/05/19 02:02:53;;;;;;;23.77;19.92;;;17.50;99.90;;;;;;5116620;28;20054;-63
2022/05/19 02:05:47;;;;;;;24.52;19.75;;;17.40;99.90;;;;;;5126578;28;20133;-63
2022/05/19 02:08:18;;;;;;;26.17;20.38;;;17.20;99.90;;;;;;5121566;28;20067;-64
2022/05/19 02:10:48;;;;;;;27.33;20.70;;;17.20;99.90;;;;;;5116339;28;20095;-63
2022/05/19 02:13:15;;;;;;;28.58;20.10;;;17.20;99.90;;;;;;5128317;28;20036;-65
2022/05/19 02:15:45;;;;;;;25.55;21.05;;;17.20;99.90;;;;;;5106916;28;20055;-63
2022/05/19 02:18:13;;;;;;;24.98;20.00;;;17.20;99.90;;;;;;5125017;28;20459;-63
2022/05/19 02:20:41;;;;;;;25.85;19.58;;;17.20;99.90;;;;;;5119378;28;20122;-63
2022/05/19 02:23:09;;;;;;;27.25;20.42;;;17.20;99.90;;;;;;5114439;28;20501;-63
2022/05/19 02:25:41;;;;;;;27.10;21.88;;;17.30;99.90;;;;;;5124978;28;20054;-64
2022/05/19 02:28:15;;;;;;;26.42;21.88;;;17.40;99.90;;;;;;5121266;28;20133;-63
2022/05/19 02:30:42;;;;;;;25.17;20.77;;;17.30;99.90;;;;;;5117752;27;20414;-63
2022/05/19 02:33:10;;;;;;;27.20;21.83;;;17.10;99.90;;;;;;5130249;27;20040;-63
2022/05/19 02:35:36;;;;;;;27.08;19.85;;;17.10;99.90;;;;;;5128957;27;20027;-64
2022/05/19 02:38:03;;;;;;;26.80;21.98;;;17.10;99.90;;;;;;5120075;27;20353;-63
2022/05/19 02:40:31;;;;;;;26.77;20.95;;;17.10;99.90;;;;;;5118045;27;20035;-63
2022/05/19 02:42:57;;;;;;;26.40;20.95;;;17.10;99.90;;;;;;5127305;27;20390;-64
2022/05/19 02:45:24;;;;;;;28.95;21.45;;;17.00;99.90;;;;;;5130754;27;20044;-63
2022/05/19 02:47:50;;;;;;;25.75;19.88;;;17.10;99.90;;;;;;5127506;27;20039;-63
2022/05/19 02:50:17;;;;;;;27.98;22.33;;;17.20;99.90;;;;;;5119179;27;20027;-64
2022/05/19 02:52:43;;;;;;;30.20;22.70;;;17.10;99.90;;;;;;5132230;27;20135;-64
2022/05/19 02:55:10;;;;;;;29.10;23.75;;;17.00;99.90;;;;;;5131425;27;20544;-63
2022/05/19 02:57:35;;;;;;;29.20;24.05;;;17.00;99.90;;;;;;5094010;27;20392;-64
2022/05/19 03:00:07;;;;;;;30.38;24.10;;;17.20;99.90;;;;;;5119242;27;20128;-63
2022/05/19 03:02:33;;;;;;;32.00;23.63;;;17.30;99.90;;;;;;5119448;27;20420;-64
2022/05/19 03:05:00;;;;;;;34.08;25.42;;;17.00;99.90;;;;;;5126086;27;20038;-63
2022/05/19 03:07:25;;;;;;;33.22;25.15;;;17.00;99.90;;;;;;5124918;27;20060;-63
2022/05/19 03:09:51;;;;;;;32.45;25.05;;;17.10;99.90;;;;;;5130780;27;20039;-64
2022/05/19 03:12:18;;;;;;;36.08;25.67;;;17.00;99.90;;;;;;5125016;27;20529;-64
2022/05/19 03:14:44;;;;;;;32.08;26.05;;;16.90;99.90;;;;;;5119427;27;20043;-63
2022/05/19 03:17:11;;;;;;;34.00;27.00;;;16.90;99.90;;;;;;5130263;27;20050;-63
2022/05/19 03:19:37;;;;;;;33.90;25.23;;;16.90;99.90;;;;;;5128079;27;20337;-64
2022/05/19 03:22:05;;;;;;;33.20;26.17;;;16.90;99.90;;;;;;5125458;27;20104;-63
2022/05/19 03:24:31;;;;;;;32.40;26.45;;;16.80;99.90;;;;;;5123715;27;20031;-64
2022/05/19 03:26:57;;;;;;;32.30;27.50;;;16.80;99.90;;;;;;5102600;27;20038;-64
2022/05/19 03:29:23;;;;;;;36.67;26.85;;;16.80;99.90;;;;;;5129856;27;20271;-63
2022/05/19 03:31:49;;;;;;;33.53;26.17;;;16.80;99.90;;;;;;5127928;27;20050;-64
2022/05/19 03:34:18;;;;;;;34.80;26.65;;;16.80;99.90;;;;;;5130374;27;20122;-63
2022/05/19 03:36:48;;;;;;;31.15;26.83;;;16.80;99.90;;;;;;5121222;27;20050;-63
2022/05/19 03:39:14;;;;;;;30.98;25.95;;;16.80;99.90;;;;;;5122438;27;20114;-64
2022/05/19 03:41:40;;;;;;;35.03;27.35;;;17.00;99.90;;;;;;5109139;27;20031;-64
2022/05/19 03:44:05;;;;;;;33.88;27.02;;;16.90;99.90;;;;;;5126160;27;20216;-64
2022/05/19 03:46:31;;;;;;;33.58;26.00;;;16.80;99.90;;;;;;5128915;27;20126;-63
2022/05/19 03:48:57;;;;;;;34.00;27.38;;;16.80;99.90;;;;;;5117513;27;21178;-63
2022/05/19 03:51:26;;;;;;;32.25;26.77;;;16.80;99.90;;;;;;5111314;27;20050;-63
2022/05/19 03:53:52;;;;;;;30.80;25.80;;;16.90;99.90;;;;;;5116670;27;20110;-64
2022/05/19 03:56:19;;;;;;;31.58;26.13;;;17.00;99.90;;;;;;5127488;27;20057;-63
2022/05/19 03:58:45;;;;;;;37.28;28.52;;;17.00;99.90;;;;;;5129457;27;20024;-63
2022/05/19 04:01:11;;;;;;;34.35;26.92;;;16.90;99.90;;;;;;5119104;27;20024;-63
2022/05/19 04:03:37;;;;;;;32.28;27.48;;;17.00;99.90;;;;;;5124054;27;20424;-63
2022/05/19 04:06:03;;;;;;;32.70;26.98;;;16.90;99.90;;;;;;5129404;27;20039;-65
2022/05/19 04:08:29;;;;;;;34.20;27.65;;;16.90;99.90;;;;;;5120019;27;20038;-64
2022/05/19 04:10:56;;;;;;;35.35;28.00;;;17.00;99.90;;;;;;5124517;27;20100;-63
2022/05/19 04:13:21;;;;;;;33.17;27.50;;;17.10;99.90;;;;;;5118339;27;20036;-64
2022/05/19 04:15:47;;;;;;;33.97;28.02;;;17.10;99.90;;;;;;5122099;27;20043;-64
2022/05/19 04:18:14;;;;;;;32.53;27.05;;;17.20;99.90;;;;;;5128650;27;20047;-65
2022/05/19 04:20:40;;;;;;;31.85;27.17;;;17.30;99.90;;;;;;5120322;27;20031;-64
2022/05/19 04:23:05;;;;;;;32.50;27.60;;;17.30;99.90;;;;;;5119397;27;20027;-63
2022/05/19 04:25:31;;;;;;;33.10;27.65;;;17.40;99.90;;;;;;5129283;27;20031;-64
2022/05/19 04:27:58;;;;;;;32.78;28.17;;;17.50;99.90;;;;;;5124760;27;20097;-63
2022/05/19 04:30:23;;;;;;;32.15;27.65;;;17.60;99.90;;;;;;5116750;27;20446;-63
2022/05/19 04:32:49;;;;;;;30.35;26.67;;;17.70;99.90;;;;;;5131450;27;20042;-63
2022/05/19 04:35:16;;;;;;;30.88;26.73;;;17.80;99.90;;;;;;5129871;27;20450;-63
2022/05/19 04:37:42;;;;;;;34.75;25.85;;;17.90;99.90;;;;;;5114313;27;20329;-64
2022/05/19 04:40:09;;;;;;;31.80;26.38;;;17.90;99.90;;;;;;5104653;27;20043;-63
2022/05/19 04:42:34;;;;;;;32.35;26.95;;;18.00;99.90;;;;;;5117490;27;20097;-64
2022/05/19 04:45:00;;;;;;;30.98;26.88;;;18.00;99.90;;;;;;5129449;27;20507;-63
2022/05/19 04:47:26;;;;;;;34.72;26.98;;;18.10;99.90;;;;;;5130729;27;20031;-64
2022/05/19 04:49:52;;;;;;;30.65;26.35;;;18.20;99.90;;;;;;5115735;27;20043;-64
2022/05/19 04:52:19;;;;;;;35.40;28.10;;;18.20;99.90;;;;;;5126441;27;20519;-64
2022/05/19 04:54:45;;;;;;;33.03;27.85;;;18.30;99.90;;;;;;5110025;27;20043;-63
2022/05/19 04:57:10;;;;;;;31.38;27.17;;;18.40;99.90;;;;;;5129008;27;20035;-64
2022/05/19 04:59:40;;;;;;;35.78;27.48;;;18.50;99.90;;;;;;5125850;27;20046;-63
2022/05/19 05:02:07;;;;;;;32.53;27.15;;;18.60;99.90;;;;;;5117976;27;20095;-63
2022/05/19 05:04:33;;;;;;;31.30;25.92;;;18.80;99.90;;;;;;5113298;27;20035;-65
2022/05/19 05:06:58;;;;;;;29.85;24.95;;;19.00;99.90;;;;;;5128939;27;20023;-64
2022/05/19 05:09:24;;;;;;;30.23;24.58;;;19.10;99.90;;;;;;5125940;27;20038;-63
2022/05/19 05:11:50;;;;;;;27.52;22.90;;;19.10;99.90;;;;;;5130062;27;20123;-63
2022/05/19 05:14:17;;;;;;;26.63;23.00;;;19.20;99.90;;;;;;5130115;27;20073;-64
2022/05/19 05:16:51;;;;;;;27.90;24.08;;;19.20;99.90;;;;;;5129361;27;20717;-64
2022/05/19 05:19:21;;;;;;;25.73;22.98;;;19.30;99.90;;;;;;5126924;27;20513;-66
2022/05/19 05:21:51;;;;;;;28.33;21.65;;;19.10;99.90;;;;;;5129358;27;20042;-64
2022/05/19 05:24:17;;;;;;;25.98;21.45;;;19.20;99.90;;;;;;5127777;27;20035;-63
2022/05/19 05:26:43;;;;;;;24.10;18.25;;;19.20;99.90;;;;;;5104477;27;20034;-63
2022/05/19 05:29:09;;;;;;;19.95;16.05;;;19.20;99.90;;;;;;5125134;27;20508;-63
2022/05/19 05:31:34;;;;;;;18.05;13.80;;;19.30;99.90;;;;;;5127667;27;20059;-64
2022/05/19 05:34:00;;;;;;;18.60;12.95;;;19.30;99.90;;;;;;5127611;27;20042;-64
2022/05/19 05:36:27;;;;;;;16.02;10.38;;;19.40;99.90;;;;;;5128944;27;20046;-64
2022/05/19 05:38:53;;;;;;;14.05;8.73;;;19.40;99.90;;;;;;5128556;27;20082;-63
2022/05/19 05:41:18;;;;;;;14.18;8.50;;;19.40;99.90;;;;;;5127547;28;20078;-63
2022/05/19 05:43:44;;;;;;;11.77;7.72;;;19.50;99.90;;;;;;5128480;27;20027;-63
2022/05/19 05:46:14;;;;;;;11.40;6.25;;;19.70;99.90;;;;;;5128932;28;20460;-63
2022/05/19 05:48:41;;;;;;;17.27;5.63;;;19.80;99.90;;;;;;5123707;27;20046;-63
2022/05/19 05:51:10;;;;;;;12.07;5.07;;;20.20;99.90;;;;;;5128226;27;20043;-63
2022/05/19 05:53:37;;;;;;;11.23;4.40;;;20.30;99.90;;;;;;5129951;28;20050;-64
2022/05/19 05:56:08;;;;;;;11.25;3.70;;;20.20;99.90;;;;;;5129769;28;20035;-63
2022/05/19 05:58:34;;;;;;;8.63;3.85;;;20.10;99.90;;;;;;5126352;28;20091;-63
2022/05/19 06:01:02;;;;;;;8.48;3.05;;;20.00;99.90;;;;;;5130090;28;20163;-62
2022/05/19 06:03:28;;;;;;;13.98;3.88;;;20.00;99.90;;;;;;5128118;27;20057;-62
2022/05/19 06:05:53;;;;;;;9.52;3.88;;;20.10;99.90;;;;;;5123629;27;20023;-64
2022/05/19 06:08:19;;;;;;;8.27;3.20;;;20.00;99.90;;;;;;5130849;27;20027;-63
2022/05/19 06:10:45;;;;;;;7.45;2.80;;;20.00;99.90;;;;;;5130526;27;20023;-63
2022/05/19 06:13:12;;;;;;;10.52;3.10;;;20.20;99.90;;;;;;5130800;27;20354;-63
2022/05/19 06:15:38;;;;;;;7.28;3.60;;;20.30;99.90;;;;;;5129826;27;20051;-63
2022/05/19 06:18:04;;;;;;;5.13;2.47;;;20.50;99.90;;;;;;5130477;27;20096;-63
2022/05/19 06:20:30;;;;;;;7.07;2.72;;;20.60;99.90;;;;;;5130897;27;20031;-64
2022/05/19 06:22:56;;;;;;;4.88;2.45;;;20.40;99.90;;;;;;5134372;27;20027;-61
2022/05/19 06:25:22;;;;;;;5.20;2.63;;;20.30;99.90;;;;;;5126216;27;20024;-63
2022/05/19 06:27:51;;;;;;;5.18;2.70;;;20.40;99.90;;;;;;5130649;27;20053;-63
2022/05/19 06:30:19;;;;;;;7.72;2.83;;;20.30;99.90;;;;;;5112646;27;20410;-62
2022/05/19 06:32:47;;;;;;;5.63;3.22;;;20.20;99.90;;;;;;5133199;27;20050;-61
2022/05/19 06:35:14;;;;;;;5.68;3.17;;;20.20;99.90;;;;;;5114775;27;20039;-61
2022/05/19 06:37:40;;;;;;;5.10;3.17;;;20.00;99.90;;;;;;5131365;27;20035;-61
2022/05/19 06:40:07;;;;;;;6.05;3.40;;;20.10;99.90;;;;;;5133663;27;20120;-61
2022/05/19 06:42:33;;;;;;;10.18;4.28;;;20.00;99.90;;;;;;5131510;27;20139;-61
2022/05/19 06:45:00;;;;;;;7.85;4.00;;;19.90;99.90;;;;;;5130763;27;20035;-61
2022/05/19 06:47:26;;;;;;;7.93;3.30;;;19.90;99.90;;;;;;5133135;27;20357;-62
2022/05/19 06:49:54;;;;;;;10.43;3.90;;;19.80;99.90;;;;;;5113620;27;20066;-61
2022/05/19 06:52:28;;;;;;;4.93;3.50;;;19.90;99.90;;;;;;5130846;27;20035;-61
2022/05/19 06:54:55;;;;;;;8.98;3.75;;;19.80;99.90;;;;;;5110880;27;20047;-62
2022/05/19 06:57:24;;;;;;;6.75;3.72;;;19.80;99.90;;;;;;5130075;27;20031;-63
2022/05/19 06:59:51;;;;;;;6.85;3.40;;;19.70;99.90;;;;;;5127597;27;20049;-63
2022/05/19 07:02:22;;;;;;;8.05;4.30;;;19.60;99.90;;;;;;5130023;27;20038;-63
2022/05/19 07:04:47;;;;;;;6.32;3.90;;;19.70;99.90;;;;;;5132921;27;20035;-63
2022/05/19 07:07:14;;;;;;;6.70;3.53;;;19.60;99.90;;;;;;5131652;27;20447;-62
2022/05/19 07:09:40;;;;;;;4.85;3.40;;;19.60;99.90;;;;;;5130212;27;20432;-64
2022/05/19 07:12:09;;;;;;;7.22;3.97;;;19.50;99.90;;;;;;5112665;27;20118;-63
2022/05/19 07:14:35;;;;;;;11.18;4.32;;;19.40;99.90;;;;;;5112016;27;20051;-64
2022/05/19 07:17:01;;;;;;;8.68;4.38;;;19.50;99.90;;;;;;5128577;27;20114;-64
2022/05/19 07:22:19;;;;;;;7.43;4.55;;;19.50;99.90;;;;;;5111264;27;20039;-65
2022/05/19 07:24:46;;;;;;;6.53;4.10;;;19.50;99.90;;;;;;5130800;27;20074;-66
2022/05/19 07:27:12;;;;;;;7.00;4.13;;;19.60;99.90;;;;;;5129788;27;20035;-64
2022/05/19 07:29:38;;;;;;;6.57;3.97;;;19.70;99.90;;;;;;5128723;27;20532;-64
2022/05/19 07:32:04;;;;;;;9.85;4.18;;;19.70;99.90;;;;;;5128957;27;20059;-64
2022/05/19 07:34:32;;;;;;;5.90;3.72;;;19.80;99.90;;;;;;5121516;27;20042;-64
2022/05/19 07:36:58;;;;;;;5.43;3.47;;;19.90;99.90;;;;;;5116987;27;20051;-64
2022/05/19 07:39:24;;;;;;;6.57;3.53;;;19.80;99.90;;;;;;5123025;27;20035;-64
2022/05/19 07:41:53;;;;;;;6.47;3.60;;;19.80;99.90;;;;;;5113113;27;20047;-64
2022/05/19 07:44:18;;;;;;;7.43;3.75;;;19.80;99.90;;;;;;5113000;27;20506;-64
2022/05/19 07:46:44;;;;;;;6.60;3.30;;;19.80;99.90;;;;;;5129746;27;20027;-64
2022/05/19 07:49:11;;;;;;;6.65;3.60;;;19.70;99.90;;;;;;5129528;27;20050;-64
2022/05/19 07:51:40;;;;;;;5.63;3.20;;;19.60;99.90;;;;;;5111423;27;20032;-64
2022/05/19 07:54:11;;;;;;;4.53;2.95;;;20.10;99.90;;;;;;5128818;27;20053;-64
2022/05/19 07:56:38;;;;;;;6.32;3.40;;;20.10;99.90;;;;;;5129288;27;20035;-63
2022/05/19 07:59:04;;;;;;;7.47;3.70;;;20.00;99.90;;;;;;5112627;27;20130;-63
2022/05/19 08:01:31;;;;;;;6.53;3.92;;;19.90;99.90;;;;;;5129739;27;20123;-66
2022/05/19 08:04:00;;;;;;;6.93;3.35;;;19.90;99.90;;;;;;5129407;27;20106;-66
2022/05/19 08:06:28;;;;;;;6.70;3.67;;;19.90;99.90;;;;;;5128991;27;20031;-62
2022/05/19 08:08:54;;;;;;;7.28;3.50;;;20.00;99.90;;;;;;5128979;27;20039;-62
2022/05/19 08:11:21;;;;;;;7.03;3.45;;;20.10;99.90;;;;;;5128749;27;20092;-65
2022/05/19 08:16:31;;;;;;;6.93;3.53;;;20.30;99.90;;;;;;5127734;27;20194;-65
2022/05/19 08:18:56;;;;;;;6.88;3.42;;;20.40;99.90;;;;;;5130456;27;20130;-65
2022/05/19 08:21:22;;;;;;;7.40;3.35;;;20.40;99.90;;;;;;5111276;27;20180;-65
2022/05/19 08:23:52;;;;;;;5.85;3.72;;;20.50;99.90;;;;;;5125434;27;20035;-66
2022/05/19 08:26:18;;;;;;;4.32;3.00;;;20.50;99.90;;;;;;5108837;27;20039;-65
2022/05/19 08:28:45;;;;;;;5.15;3.28;;;20.60;99.90;;;;;;5127043;27;20093;-65
2022/05/19 08:31:20;;;;;;;5.50;3.08;;;20.70;99.90;;;;;;5126883;27;20492;-65
2022/05/19 08:33:49;;;;;;;6.82;3.50;;;20.90;99.90;;;;;;5127431;27;20038;-66
2022/05/19 08:36:14;;;;;;;6.40;3.45;;;21.00;99.90;;;;;;5129226;27;20447;-65
2022/05/19 08:38:41;;;;;;;5.97;3.40;;;21.10;99.90;;;;;;5132712;27;20027;-65
2022/05/19 08:41:14;;;;;;;9.07;3.45;;;21.10;99.90;;;;;;5129101;27;20156;-65
2022/05/19 08:44:04;;;;;;;6.03;3.45;;;21.10;99.90;;;;;;5130339;27;20031;-65
2022/05/19 08:46:39;;;;;;;7.88;3.13;;;21.20;99.90;;;;;;5126862;27;20085;-66
2022/05/19 08:49:10;;;;;;;6.32;3.42;;;21.30;99.90;;;;;;5129179;27;20138;-65
2022/05/19 08:51:40;;;;;;;5.55;3.20;;;21.50;99.90;;;;;;5129238;27;20561;-65
2022/05/19 08:54:08;;;;;;;4.88;3.03;;;21.70;99.90;;;;;;5129505;27;20064;-65
2022/05/19 08:56:47;;;;;;;6.53;3.00;;;21.70;99.90;;;;;;5128730;27;20035;-65
2022/05/19 08:59:51;;;;;;;6.38;3.80;;;21.90;99.90;;;;;;5127301;27;20452;-66
2022/05/19 09:02:25;;;;;;;6.82;3.70;;;22.20;99.90;;;;;;5128278;27;20035;-66
2022/05/19 09:05:14;;;;;;;6.45;4.00;;;22.30;99.90;;;;;;5127279;27;20035;-66
2022/05/19 09:08:17;;;;;;;8.50;3.53;;;22.10;99.90;;;;;;5113182;27;20127;-65
2022/05/19 09:11:14;;;;;;;5.07;2.92;;;22.20;99.90;;;;;;5110986;27;20039;-65
2022/05/19 09:14:28;;;;;;;4.90;2.95;;;22.30;99.90;;;;;;5128264;27;20035;-66
2022/05/19 09:17:07;;;;;;;5.03;2.60;;;22.30;99.90;;;;;;5068194;28;20068;-65
2022/05/19 09:19:49;;;;;;;6.57;2.50;;;22.60;99.90;;;;;;5049758;28;20043;-66
2022/05/19 09:22:22;;;;;;;4.80;2.70;;;22.70;99.90;;;;;;5108151;27;20101;-65
2022/05/19 09:24:50;;;;;;;6.13;3.03;;;22.90;99.90;;;;;;5128114;27;20530;-64
2022/05/19 09:27:18;;;;;;;5.97;2.95;;;23.10;99.90;;;;;;5112782;27;20031;-66
2022/05/19 09:29:49;;;;;;;5.38;2.45;;;23.30;99.90;;;;;;5131525;27;20043;-66
2022/05/19 09:32:39;;;;;;;6.53;3.53;;;23.60;99.90;;;;;;5130580;27;20035;-66
2022/05/19 09:35:08;;;;;;;4.35;2.50;;;23.70;99.90;;;;;;5128332;27;20035;-65
2022/05/19 09:37:42;;;;;;;4.97;2.85;;;23.80;99.90;;;;;;5128940;27;20406;-66
2022/05/19 09:40:11;;;;;;;4.30;2.92;;;23.90;99.90;;;;;;5127873;27;20047;-66
2022/05/19 09:43:18;;;;;;;5.30;2.95;;;23.60;99.90;;;;;;5128620;28;20038;-65
2022/05/19 09:46:14;;;;;;;4.85;3.00;;;23.80;99.90;;;;;;5127334;28;20055;-65
2022/05/19 09:48:46;;;;;;;4.90;2.60;;;23.90;99.90;;;;;;5127697;28;20517;-63
2022/05/19 09:51:15;;;;;;;5.20;2.88;;;24.10;99.90;;;;;;5121016;28;20047;-63
2022/05/19 09:53:57;;;;;;;4.85;2.90;;;24.10;99.90;;;;;;5111384;28;20092;-65
2022/05/19 09:56:33;;;;;;;4.40;2.95;;;24.10;99.90;;;;;;5128310;28;20138;-65
2022/05/19 09:59:14;;;;;;;4.15;2.60;;;23.90;99.90;;;;;;5127871;28;20031;-63
2022/05/19 10:01:45;;;;;;;3.83;2.97;;;23.90;99.90;;;;;;5128266;28;20043;-62
2022/05/19 10:04:37;;;;;;;7.05;3.10;;;23.80;99.90;;;;;;5126370;28;20565;-63
2022/05/19 10:07:22;;;;;;;5.28;2.63;;;23.80;99.90;;;;;;5128420;28;20035;-62
2022/05/19 10:09:48;;;;;;;3.97;2.78;;;23.80;99.90;;;;;;5127209;28;20070;-65
2022/05/19 10:12:31;;;;;;;5.25;2.60;;;23.80;99.90;;;;;;5129579;28;20035;-65
2022/05/19 10:15:19;;;;;;;3.40;2.40;;;23.70;99.90;;;;;;5126162;28;20039;-64
2022/05/19 10:18:36;;;;;;;4.80;3.10;;;24.00;99.90;;;;;;5128583;28;20027;-66
2022/05/19 10:21:44;;;;;;;3.90;2.90;;;24.20;99.90;;;;;;5114336;28;20138;-64
2022/05/19 10:24:16;;;;;;;5.45;3.20;;;24.50;99.90;;;;;;5126365;28;20034;-65
2022/05/19 10:26:51;;;;;;;5.30;3.57;;;24.80;99.90;;;;;;5128665;28;20667;-65
2022/05/19 10:32:58;;;;;;;5.93;4.05;;;25.10;99.90;;;;;;5129056;28;20093;-65
2022/05/19 10:35:55;;;;;;;12.43;3.80;;;24.90;99.90;;;;;;5076148;28;20466;-65
2022/05/19 10:38:33;;;;;;;6.50;3.88;;;25.10;99.90;;;;;;5124442;28;20032;-65
2022/05/19 10:41:25;;;;;;;4.80;3.55;;;25.20;99.90;;;;;;5129917;28;20035;-65
2022/05/19 10:44:32;;;;;;;5.10;3.38;;;25.50;99.90;;;;;;5126464;28;20345;-66
2022/05/19 10:47:08;;;;;;;4.28;2.75;;;25.60;99.90;;;;;;5097259;28;20073;-65
2022/05/19 10:50:01;;;;;;;6.68;2.72;;;25.90;99.90;;;;;;5118701;28;20437;-65
2022/05/19 10:52:58;;;;;;;3.08;2.20;;;26.00;99.90;;;;;;5129907;27;20383;-65
2022/05/19 10:55:53;;;;;;;3.33;2.45;;;26.20;99.90;;;;;;5131191;27;20477;-65
2022/05/19 10:58:22;;;;;;;4.18;2.88;;;26.30;99.90;;;;;;5099767;27;20059;-65
2022/05/19 11:00:59;;;;;;;4.40;2.80;;;26.30;99.90;;;;;;5135004;27;20126;-64
2022/05/19 11:03:58;;;;;;;4.15;2.45;;;26.30;99.90;;;;;;5114342;27;20158;-64
2022/05/19 11:06:52;;;;;;;3.92;2.80;;;26.40;99.90;;;;;;5097913;27;20134;-64
2022/05/19 11:09:39;;;;;;;4.20;2.90;;;26.50;99.90;;;;;;5130960;27;20381;-64
2022/05/19 11:12:13;;;;;;;5.07;3.28;;;26.50;99.90;;;;;;5131513;27;20042;-64
2022/05/19 11:14:47;;;;;;;5.28;3.15;;;26.50;99.90;;;;;;5134322;27;20039;-64
2022/05/19 11:17:22;;;;;;;5.75;3.75;;;26.70;99.90;;;;;;5111333;27;20039;-64
2022/05/19 11:20:05;;;;;;;6.53;4.00;;;26.70;99.90;;;;;;5130107;27;20343;-63
2022/05/19 11:22:34;;;;;;;;;;;26.80;99.90;;;;;;5131157;27;20459;-64
2022/05/19 11:28:09;;;;;;;4.57;2.42;;;27.10;99.90;;;;;;5119919;27;20628;-65
2022/05/19 11:30:45;;;;;;;4.18;2.80;;;27.30;99.90;;;;;;5129109;27;20108;-64
2022/05/19 11:33:16;;;;;;;5.05;3.22;;;27.20;99.90;;;;;;5127086;27;20035;-64
2022/05/19 11:35:46;;;;;;;6.05;3.33;;;27.20;99.90;;;;;;5128965;27;20236;-64
2022/05/19 11:38:41;;;;;;;3.55;3.00;;;27.20;99.90;;;;;;5128146;27;20150;-64
2022/05/19 11:41:39;;;;;;;6.05;3.45;;;27.20;99.90;;;;;;5128016;27;20316;-64
2022/05/19 11:44:20;;;;;;;4.28;3.45;;;27.20;99.90;;;;;;5126790;27;20435;-64
2022/05/19 11:47:00;;;;;;;3.85;3.08;;;27.20;99.90;;;;;;5128434;27;20364;-65
2022/05/19 11:55:45;;;;;;;6.32;4.50;;;27.20;99.90;;;;;;5122537;27;20047;-63
2022/05/19 11:58:25;;;;;;;7.60;4.50;;;27.20;99.90;;;;;;5119202;27;20122;-63
2022/05/19 12:01:00;;;;;;;8.15;4.50;;;27.00;99.90;;;;;;5125781;27;20070;-64
2022/05/19 12:03:43;;;;;;;5.45;3.90;;;26.90;99.90;;;;;;5111234;27;20483;-64
2022/05/19 12:06:10;;;;;;;7.55;4.57;;;26.80;99.90;;;;;;5115513;27;20049;-64
2022/05/19 12:08:41;;;;;;;6.65;4.28;;;26.80;99.90;;;;;;5117708;27;20046;-64
2022/05/19 12:11:24;;;;;;;6.55;4.13;;;26.60;99.90;;;;;;5125493;27;20046;-64
2022/05/19 12:14:18;;;;;;;5.88;3.75;;;26.40;99.90;;;;;;5126845;27;20042;-64
2022/05/19 12:16:52;;;;;;;6.00;3.15;;;26.30;99.90;;;;;;5128840;27;20534;-64
2022/05/19 12:19:35;;;;;;;4.53;2.60;;;26.20;99.90;;;;;;5128956;27;20092;-62
2022/05/19 12:22:16;;;;;;;5.20;2.55;;;26.00;99.90;;;;;;5128479;27;20109;-64
2022/05/19 12:25:07;;;;;;;3.72;2.85;;;25.90;99.90;;;;;;5128072;27;20035;-63
2022/05/19 12:27:36;;;;;;;5.47;2.88;;;25.70;99.90;;;;;;5126637;27;20039;-63
2022/05/19 12:33:22;;;;;;;4.30;3.42;;;25.60;99.90;;;;;;5121126;27;20130;-64
2022/05/19 12:35:52;;;;;;;5.50;3.22;;;25.40;99.90;;;;;;5114276;27;20031;-63
2022/05/19 12:38:28;;;;;;;5.25;3.30;;;25.20;99.90;;;;;;5128290;27;20035;-63
2022/05/19 12:40:58;;;;;;;6.43;4.18;;;25.10;99.90;;;;;;5127057;27;20123;-60
2022/05/19 12:43:38;;;;;;;7.43;4.35;;;24.80;99.90;;;;;;5128578;27;20027;-61
2022/05/19 12:46:24;;;;;;;4.32;2.83;;;24.50;99.90;;;;;;5116564;27;20118;-63
2022/05/19 12:49:09;;;;;;;5.72;4.00;;;24.30;99.90;;;;;;5119058;27;20039;-64
2022/05/19 12:51:51;;;;;;;9.68;6.25;;;23.80;99.90;;;;;;5122655;27;20078;-64
2022/05/19 12:54:19;;;;;;;10.75;6.40;;;23.10;99.90;;;;;;5114950;27;20653;-65
2022/05/19 12:56:50;;;;;;;7.95;6.78;;;22.40;99.90;;;;;;5104786;27;20031;-65
2022/05/19 12:59:51;;;;;;;9.32;6.78;;;21.80;99.90;;;;;;5127775;27;20059;-66
2022/05/19 13:02:40;;;;;;;12.02;7.00;;;21.20;99.90;;;;;;5097681;27;20093;-65
2022/05/19 13:05:26;;;;;;;9.90;6.53;;;20.70;99.90;;;;;;5126874;27;20050;-64
2022/05/19 13:08:00;;;;;;;8.52;5.63;;;20.10;99.90;;;;;;5127271;27;20065;-65
2022/05/19 13:10:38;;;;;;;10.15;5.43;;;19.70;99.90;;;;;;5129082;27;20043;-65
2022/05/19 13:13:15;;;;;;;8.57;4.80;;;19.50;99.90;;;;;;5127964;27;20034;-65
2022/05/19 13:15:57;;;;;;;9.07;4.53;;;19.40;99.90;;;;;;5117251;27;20055;-64
2022/05/19 13:18:31;;;;;;;9.27;4.55;;;19.30;99.90;;;;;;5120740;27;20039;-63
2022/05/19 13:21:09;;;;;;;9.65;4.43;;;19.10;99.90;;;;;;5125874;27;20085;-64
2022/05/19 13:23:39;;;;;;;7.88;3.72;;;19.10;99.90;;;;;;5106411;27;20027;-64
2022/05/19 13:26:13;;;;;;;7.07;3.90;;;19.00;99.90;;;;;;5127002;27;20035;-63